createdAt,value
2023-04-18T00:03:05.114Z,98572.31
2023-04-18T00:06:11.044Z,98570.44
2023-04-18T00:09:20.462Z,98573.66
2023-04-18T00:12:26.006Z,98563.22
2023-04-18T00:15:32.582Z,98569.50
2023-04-18T00:18:38.093Z,98566.06
2023-04-18T00:21:45.214Z,98566.66
2023-04-18T00:24:54.871Z,98569.16
2023-04-18T00:28:01.581Z,98569.75
2023-04-18T00:31:07.292Z,98576.38
2023-04-18T00:34:13.797Z,98583.00
2023-04-18T00:37:19.723Z,98582.81
2023-04-18T00:40:30.944Z,98580.78
2023-04-18T00:43:37.478Z,98585.00
2023-04-18T00:46:44.154Z,98581.81
2023-04-18T00:49:51.725Z,98575.69
2023-04-18T00:53:00.033Z,98567.47
2023-04-18T00:56:09.498Z,98569.56
2023-04-18T00:59:17.599Z,98565.88
2023-04-18T01:02:26.479Z,98569.75
2023-04-18T01:05:33.260Z,98568.66
2023-04-18T01:08:40.354Z,98569.75
2023-04-18T01:11:49.420Z,98572.31
2023-04-18T01:14:55.067Z,98574.84
2023-04-18T01:18:03.849Z,98566.88
2023-04-18T01:21:10.211Z,98564.25
2023-04-18T01:24:24.964Z,98569.44
2023-04-18T01:27:30.734Z,98572.31
2023-04-18T01:30:39.823Z,98562.00
2023-04-18T01:33:45.399Z,98562.47
2023-04-18T01:36:52.194Z,98566.97
2023-04-18T01:40:01.350Z,98573.81
2023-04-18T01:43:07.682Z,98570.44
2023-04-18T01:46:17.066Z,98574.84
2023-04-18T01:49:23.393Z,98567.56
2023-04-18T01:52:29.302Z,98568.50
2023-04-18T01:55:38.370Z,98562.81
2023-04-18T01:58:45.194Z,98562.81
2023-04-18T02:01:52.454Z,98570.63
2023-04-18T02:04:57.952Z,98565.03
2023-04-18T02:08:04.503Z,98555.56
2023-04-18T02:11:13.183Z,98555.56
2023-04-18T02:14:20.129Z,98570.63
2023-04-18T02:17:26.626Z,98560.44
2023-04-18T02:20:35.209Z,98550.31
2023-04-18T02:23:40.841Z,98557.16
2023-04-18T02:26:50.030Z,98548.44
2023-04-18T02:29:57.408Z,98551.13
2023-04-18T02:33:04.013Z,98559.19
2023-04-18T02:36:10.628Z,98557.41
2023-04-18T02:39:16.944Z,98559.19
2023-04-18T02:42:25.178Z,98552.41
2023-04-18T02:45:32.975Z,98557.94
2023-04-18T02:48:39.310Z,98561.97
2023-04-18T02:51:47.024Z,98575.00
2023-04-18T02:54:53.679Z,98568.06
2023-04-18T02:58:08.060Z,98555.53
2023-04-18T03:01:41.145Z,98571.13
2023-04-18T03:04:52.800Z,98563.81
2023-04-18T03:07:58.342Z,98569.00
2023-04-18T03:11:05.134Z,98570.44
2023-04-18T03:14:13.707Z,98570.69
2023-04-18T03:17:28.305Z,98568.59
2023-04-18T03:20:33.956Z,98568.25
2023-04-18T03:23:40.475Z,98571.97
2023-04-18T03:26:46.327Z,98575.16
2023-04-18T03:29:56.026Z,98571.78
2023-04-18T03:33:03.110Z,98579.50
2023-04-18T03:36:10.893Z,98588.03
2023-04-18T03:39:16.444Z,98581.09
2023-04-18T03:42:23.510Z,98588.22
2023-04-18T03:45:32.045Z,98586.44
2023-04-18T03:48:39.265Z,98581.97
2023-04-18T03:51:50.531Z,98586.44
2023-04-18T03:54:57.808Z,98593.22
2023-04-18T03:58:08.882Z,98583.47
2023-04-18T04:01:18.329Z,98579.50
2023-04-18T04:04:23.998Z,98589.03
2023-04-18T04:07:30.673Z,98587.22
2023-04-18T04:10:36.258Z,98584.66
2023-04-18T04:13:43.232Z,98599.72
2023-04-18T04:16:54.710Z,98613.25
2023-04-18T04:20:02.109Z,98612.25
2023-04-18T04:23:10.340Z,98613.25
2023-04-18T04:26:18.800Z,98621.41
2023-04-18T04:29:33.154Z,98619.78
2023-04-18T04:32:44.972Z,98620.53
2023-04-18T04:35:51.300Z,98627.00
2023-04-18T04:38:57.785Z,98629.19
2023-04-18T04:42:12.784Z,98632.22
2023-04-18T04:45:29.768Z,98637.22
2023-04-18T04:48:38.050Z,98639.09
2023-04-18T04:51:44.631Z,98645.28
2023-04-18T04:54:50.369Z,98647.47
2023-04-18T04:57:58.786Z,98648.00
2023-04-18T05:01:45.389Z,98649.78
2023-04-18T05:04:54.661Z,98645.28
2023-04-18T05:08:00.203Z,98646.63
2023-04-18T05:11:07.372Z,98656.63
2023-04-18T05:14:13.474Z,98656.25
2023-04-18T05:17:20.029Z,98655.16
2023-04-18T05:20:28.389Z,98656.66
2023-04-18T05:23:37.351Z,98658.38
2023-04-18T05:26:43.103Z,98648.63
2023-04-18T05:29:50.604Z,98673.03
2023-04-18T05:32:56.658Z,98670.16
2023-04-18T05:36:05.826Z,98670.81
2023-04-18T05:39:11.635Z,98682.47
2023-04-18T05:42:18.212Z,98676.47
2023-04-18T05:45:24.324Z,98673.66
2023-04-18T05:48:31.299Z,98684.19
2023-04-18T05:51:39.630Z,98676.88
2023-04-18T05:54:46.014Z,98683.38
2023-04-18T05:57:51.530Z,98672.59
2023-04-18T06:00:58.221Z,98696.13
2023-04-18T06:04:03.875Z,98683.72
2023-04-18T06:07:13.440Z,98694.28
2023-04-18T06:10:19.170Z,98690.16
2023-04-18T06:13:25.719Z,98691.00
2023-04-18T06:16:31.419Z,98684.72
2023-04-18T06:19:37.754Z,98685.44
2023-04-18T06:22:46.066Z,98699.75
2023-04-18T06:25:52.621Z,98696.56
2023-04-18T06:28:58.097Z,98691.88
2023-04-18T06:32:04.824Z,98715.66
2023-04-18T06:35:11.284Z,98716.59
2023-04-18T06:38:20.607Z,98710.59
2023-04-18T06:41:26.154Z,98708.59
2023-04-18T06:44:32.561Z,98704.38
2023-04-18T06:47:38.304Z,98707.84
2023-04-18T06:50:45.162Z,98710.56
2023-04-18T06:53:54.071Z,98719.59
2023-04-18T06:57:00.492Z,98721.00
2023-04-18T07:00:06.835Z,98730.03
2023-04-18T07:03:14.641Z,98728.81
2023-04-18T07:06:20.241Z,98730.56
2023-04-18T07:09:31.057Z,98735.75
2023-04-18T07:12:36.927Z,98736.31
2023-04-18T07:15:43.360Z,98748.84
2023-04-18T07:18:49.065Z,98741.31
2023-04-18T07:21:56.275Z,98740.09
2023-04-18T07:25:04.769Z,98738.88
2023-04-18T07:28:11.229Z,98744.38
2023-04-18T07:31:16.840Z,98742.81
2023-04-18T07:34:23.372Z,98749.97
2023-04-18T07:37:29.296Z,98755.13
2023-04-18T07:40:38.591Z,98745.25
2023-04-18T07:43:45.125Z,98756.38
2023-04-18T07:47:12.777Z,98754.13
2023-04-18T07:50:33.551Z,98749.97
2023-04-18T07:53:44.118Z,98757.53
2023-04-18T07:56:52.398Z,98757.88
2023-04-18T07:59:58.737Z,98757.31
2023-04-18T08:03:04.563Z,98748.94
2023-04-18T08:06:11.199Z,98756.81
2023-04-18T08:09:20.866Z,98772.69
2023-04-18T08:12:30.108Z,98762.34
2023-04-18T08:15:35.668Z,98768.53
2023-04-18T08:18:41.973Z,98772.69
2023-04-18T08:21:47.654Z,98771.88
2023-04-18T08:25:04.310Z,98765.59
2023-04-18T08:28:13.979Z,98781.25
2023-04-18T08:31:32.880Z,98781.84
2023-04-18T08:34:40.113Z,98780.16
2023-04-18T08:37:46.612Z,98770.66
2023-04-18T08:40:52.354Z,98774.25
2023-04-18T08:44:02.056Z,98776.66
2023-04-18T08:47:07.777Z,98783.03
2023-04-18T08:50:14.672Z,98798.78
2023-04-18T08:53:20.443Z,98782.69
2023-04-18T08:56:27.583Z,98782.03
2023-04-18T08:59:36.063Z,98777.81
2023-04-18T09:02:47.452Z,98775.28
2023-04-18T09:06:12.744Z,98777.38
2023-04-18T09:09:20.849Z,98776.38
2023-04-18T09:12:29.864Z,98773.19
2023-04-18T09:15:39.003Z,98768.28
2023-04-18T09:18:45.428Z,98776.53
2023-04-18T09:22:05.010Z,98771.06
2023-04-18T09:25:14.571Z,98771.22
2023-04-18T09:28:30.429Z,98771.47
2023-04-18T09:31:38.913Z,98764.94
2023-04-18T09:34:46.036Z,98766.84
2023-04-18T09:37:53.624Z,98772.53
2023-04-18T09:41:12.105Z,98772.13
2023-04-18T09:44:20.509Z,98769.78
2023-04-18T09:47:31.219Z,98765.72
2023-04-18T09:50:42.103Z,98769.28
2023-04-18T09:53:50.513Z,98768.72
2023-04-18T09:56:56.809Z,98764.53
2023-04-18T10:00:17.454Z,98768.69
2023-04-18T10:03:37.357Z,98763.38
2023-04-18T10:06:45.945Z,98761.03
2023-04-18T10:09:53.032Z,98755.50
2023-04-18T10:13:03.254Z,98756.97
2023-04-18T10:16:13.061Z,98729.94
2023-04-18T10:19:32.875Z,98745.97
2023-04-18T10:22:38.518Z,98743.13
2023-04-18T10:25:52.812Z,98750.50
2023-04-18T10:29:01.165Z,98746.06
2023-04-18T10:32:10.094Z,98744.19
2023-04-18T10:35:18.698Z,98748.16
2023-04-18T10:38:26.744Z,98731.72
2023-04-18T10:41:34.464Z,98726.50
2023-04-18T10:44:40.870Z,98743.63
2023-04-18T10:47:46.710Z,98716.91
2023-04-18T10:51:18.821Z,98728.72
2023-04-18T10:54:38.041Z,98723.53
2023-04-18T10:57:47.463Z,98729.22
2023-04-18T11:00:56.716Z,98726.66
2023-04-18T11:04:04.339Z,98725.56
2023-04-18T11:07:12.773Z,98721.03
2023-04-18T11:10:25.680Z,98717.16
2023-04-18T11:13:32.078Z,98719.19
2023-04-18T11:16:39.009Z,98724.66
2023-04-18T11:19:44.521Z,98715.72
2023-04-18T11:22:58.100Z,98713.53
2023-04-18T11:26:03.638Z,98723.69
2023-04-18T11:29:09.969Z,98720.94
2023-04-18T11:32:15.668Z,98725.84
2023-04-18T11:35:22.309Z,98708.50
2023-04-18T11:38:34.128Z,98705.34
2023-04-18T11:41:44.625Z,98705.84
2023-04-18T11:44:50.654Z,98702.44
2023-04-18T11:48:01.533Z,98690.88
2023-04-18T11:51:08.181Z,98707.59
2023-04-18T11:54:45.997Z,98713.69
2023-04-18T11:57:56.794Z,98706.31
2023-04-18T12:01:19.285Z,98708.13
2023-04-18T12:04:24.954Z,98705.47
2023-04-18T12:07:40.743Z,98701.16
2023-04-18T12:10:54.983Z,98706.94
2023-04-18T12:14:02.558Z,98705.22
2023-04-18T12:17:09.582Z,98699.19
2023-04-18T12:20:17.098Z,98700.63
2023-04-18T12:23:43.172Z,98696.34
2023-04-18T12:26:53.066Z,98691.03
2023-04-18T12:29:58.605Z,98702.34
2023-04-18T12:33:07.282Z,98704.06
2023-04-18T12:36:13.236Z,98693.75
2023-04-18T12:39:19.592Z,98696.78
2023-04-18T12:42:27.818Z,98689.75
2023-04-18T12:45:34.436Z,98694.75
2023-04-18T12:48:39.965Z,98689.13
2023-04-18T12:51:46.823Z,98686.88
2023-04-18T12:54:53.030Z,98688.97
2023-04-18T12:58:02.407Z,98689.16
2023-04-18T13:01:09.560Z,98681.75
2023-04-18T13:04:16.341Z,98694.78
2023-04-18T13:07:23.019Z,98684.59
2023-04-18T13:10:29.507Z,98665.00
2023-04-18T13:13:37.807Z,98680.59
2023-04-18T13:16:44.296Z,98676.00
2023-04-18T13:19:50.132Z,98677.72
2023-04-18T13:22:57.666Z,98678.88
2023-04-18T13:26:03.928Z,98669.88
2023-04-18T13:29:13.292Z,98673.28
2023-04-18T13:32:20.445Z,98668.97
2023-04-18T13:35:26.823Z,98674.28
2023-04-18T13:38:32.721Z,98668.75
2023-04-18T13:41:38.995Z,98670.44
2023-04-18T13:44:47.423Z,98675.97
2023-04-18T13:47:53.923Z,98689.13
2023-04-18T13:51:00.305Z,98684.31
2023-04-18T13:54:07.173Z,98677.59
2023-04-18T13:57:14.985Z,98679.34
2023-04-18T14:00:24.647Z,98680.97
2023-04-18T14:03:30.466Z,98675.84
2023-04-18T14:06:37.034Z,98686.41
2023-04-18T14:09:42.688Z,98674.09
2023-04-18T14:12:49.512Z,98680.00
2023-04-18T14:15:58.770Z,98673.03
2023-04-18T14:19:05.478Z,98679.09
2023-04-18T14:22:10.985Z,98683.66
2023-04-18T14:25:17.526Z,98677.00
2023-04-18T14:28:25.290Z,98688.88
2023-04-18T14:31:34.739Z,98677.59
2023-04-18T14:34:40.375Z,98689.06
2023-04-18T14:37:46.915Z,98678.88
2023-04-18T14:40:52.388Z,98680.56
2023-04-18T14:43:58.812Z,98681.09
2023-04-18T14:47:07.229Z,98685.75
2023-04-18T14:50:15.668Z,98679.38
2023-04-18T14:53:21.529Z,98680.00
2023-04-18T14:56:27.942Z,98673.44
2023-04-18T14:59:33.446Z,98695.22
2023-04-18T15:02:43.044Z,98686.59
2023-04-18T15:05:49.530Z,98687.75
2023-04-18T15:08:57.034Z,98681.25
2023-04-18T15:12:02.527Z,98676.78
2023-04-18T15:15:10.319Z,98678.97
2023-04-18T15:18:18.526Z,98683.66
2023-04-18T15:21:24.826Z,98678.81
2023-04-18T15:24:30.399Z,98681.00
2023-04-18T15:27:37.072Z,98677.25
2023-04-18T15:30:43.034Z,98648.00
2023-04-18T15:33:52.216Z,98704.63
2023-04-18T15:36:57.699Z,98687.75
2023-04-18T15:40:06.233Z,98685.59
2023-04-18T15:43:11.708Z,98680.91
2023-04-18T15:46:18.221Z,98683.19
2023-04-18T15:49:26.641Z,98688.72
2023-04-18T15:52:33.141Z,98689.34
2023-04-18T15:55:38.776Z,98695.72
2023-04-18T15:58:45.355Z,98683.91
2023-04-18T16:01:51.391Z,98681.03
2023-04-18T16:05:00.547Z,98687.50
2023-04-18T16:08:06.592Z,98690.41
2023-04-18T16:11:13.492Z,98689.34
2023-04-18T16:14:18.955Z,98693.06
2023-04-18T16:17:25.362Z,98682.00
2023-04-18T16:20:34.069Z,98682.72
2023-04-18T16:23:40.393Z,98682.22
2023-04-18T16:26:45.914Z,98682.00
2023-04-18T16:29:54.059Z,98681.72
2023-04-18T16:32:59.774Z,98691.84
2023-04-18T16:36:09.535Z,98688.09
2023-04-18T16:39:16.117Z,98690.09
2023-04-18T16:42:22.520Z,98696.84
2023-04-18T16:45:28.285Z,98701.94
2023-04-18T16:48:38.011Z,98692.50
2023-04-18T16:51:46.224Z,98698.41
2023-04-18T16:54:52.832Z,98686.13
2023-04-18T16:57:58.689Z,98695.22
2023-04-18T17:01:05.248Z,98705.50
2023-04-18T17:04:10.756Z,98699.44
2023-04-18T17:07:19.966Z,98697.34
2023-04-18T17:10:25.822Z,98694.53
2023-04-18T17:13:32.880Z,98676.09
2023-04-18T17:16:44.034Z,98696.81
2023-04-18T17:19:50.423Z,98702.53
2023-04-18T17:22:59.237Z,98712.94
2023-04-18T17:26:05.771Z,98710.47
2023-04-18T17:29:11.328Z,98721.16
2023-04-18T17:32:18.126Z,98718.66
2023-04-18T17:35:24.000Z,98708.09
2023-04-18T17:38:33.183Z,98715.50
2023-04-18T17:41:40.973Z,98715.25
2023-04-18T17:44:47.356Z,98720.66
2023-04-18T17:47:53.119Z,98716.53
2023-04-18T17:50:59.500Z,98721.81
2023-04-18T17:54:08.431Z,98727.53
2023-04-18T17:57:15.239Z,98733.88
2023-04-18T18:00:22.188Z,98729.75
2023-04-18T18:03:28.807Z,98736.00
2023-04-18T18:06:34.867Z,98720.88
2023-04-18T18:09:45.687Z,98722.88
2023-04-18T18:12:51.231Z,98721.94
2023-04-18T18:15:58.708Z,98731.31
2023-04-18T18:19:07.809Z,98735.34
2023-04-18T18:22:14.145Z,98728.56
2023-04-18T18:25:22.823Z,98737.25
2023-04-18T18:28:29.270Z,98743.72
2023-04-18T18:31:34.811Z,98742.53
2023-04-18T18:34:41.179Z,98751.88
2023-04-18T18:37:46.899Z,98736.25
2023-04-18T18:40:56.045Z,98746.59
2023-04-18T18:44:01.609Z,98732.00
2023-04-18T18:47:08.052Z,98741.94
2023-04-18T18:50:14.046Z,98735.69
2023-04-18T18:53:20.590Z,98740.44
2023-04-18T18:56:28.896Z,98735.56
2023-04-18T18:59:35.298Z,98731.94
2023-04-18T19:02:42.041Z,98736.34
2023-04-18T19:05:49.370Z,98742.41
2023-04-18T19:08:55.314Z,98735.38
2023-04-18T19:12:04.834Z,98735.44
2023-04-18T19:15:12.795Z,98724.34
2023-04-18T19:18:20.337Z,98729.25
2023-04-18T19:21:26.453Z,98738.50
2023-04-18T19:24:33.067Z,98732.28
2023-04-18T19:27:42.086Z,98727.50
2023-04-18T19:30:49.023Z,98726.44
2023-04-18T19:33:54.903Z,98730.22
2023-04-18T19:37:01.579Z,98733.59
2023-04-18T19:40:08.032Z,98732.75
2023-04-18T19:43:17.977Z,98728.69
2023-04-18T19:46:23.814Z,98734.19
2023-04-18T19:49:30.671Z,98715.75
2023-04-18T19:52:39.814Z,98721.19
2023-04-18T19:55:48.436Z,98720.06
2023-04-18T19:58:58.210Z,98716.31
2023-04-18T20:02:06.416Z,98713.28
2023-04-18T20:05:13.196Z,98719.97
2023-04-18T20:08:20.017Z,98713.69
2023-04-18T20:11:25.657Z,98717.06
2023-04-18T20:14:35.916Z,98713.31
2023-04-18T20:17:41.563Z,98704.25
2023-04-18T20:20:48.220Z,98715.38
2023-04-18T20:23:53.710Z,98696.94
2023-04-18T20:27:03.342Z,98702.84
2023-04-18T20:30:13.567Z,98700.88
2023-04-18T20:33:20.214Z,98700.88
2023-04-18T20:36:25.772Z,98701.75
2023-04-18T20:39:32.873Z,98695.81
2023-04-18T20:42:39.153Z,98690.72
2023-04-18T20:45:51.393Z,98689.91
2023-04-18T20:48:57.507Z,98681.69
2023-04-18T20:52:03.938Z,98683.00
2023-04-18T20:55:10.241Z,98679.03
2023-04-18T20:58:17.108Z,98676.97
2023-04-18T21:01:26.242Z,98672.16
2023-04-18T21:04:33.304Z,98676.41
2023-04-18T21:07:39.926Z,98670.38
2023-04-18T21:10:46.285Z,98669.63
2023-04-18T21:13:52.030Z,98673.03
2023-04-18T21:17:02.053Z,98663.03
2023-04-18T21:20:09.494Z,98658.34
2023-04-18T21:23:15.856Z,98656.25
2023-04-18T21:26:21.557Z,98655.31
2023-04-18T21:29:28.166Z,98653.25
2023-04-18T21:32:36.716Z,98648.91
2023-04-18T21:35:43.155Z,98655.09
2023-04-18T21:38:48.646Z,98651.72
2023-04-18T21:41:54.997Z,98647.44
2023-04-18T21:45:00.454Z,98638.75
2023-04-18T21:48:12.206Z,98632.72
2023-04-18T21:51:19.932Z,98636.34
2023-04-18T21:54:26.330Z,98630.09
2023-04-18T21:57:31.969Z,98628.22
2023-04-18T22:00:38.603Z,98627.56
2023-04-18T22:03:47.914Z,98627.56
2023-04-18T22:06:54.727Z,98630.44
2023-04-18T22:10:00.724Z,98625.09
2023-04-18T22:13:07.823Z,98623.34
2023-04-18T22:16:13.909Z,98620.72
2023-04-18T22:19:25.081Z,98617.13
2023-04-18T22:22:30.824Z,98613.72
2023-04-18T22:25:38.021Z,98612.81
2023-04-18T22:28:43.489Z,98602.44
2023-04-18T22:31:50.384Z,98594.53
2023-04-18T22:34:58.872Z,98594.19
2023-04-18T22:38:05.279Z,98593.50
2023-04-18T22:41:11.224Z,98597.94
2023-04-18T22:44:20.016Z,98591.84
2023-04-18T22:47:25.716Z,98585.91
2023-04-18T22:50:38.100Z,98584.22
2023-04-18T22:53:43.626Z,98584.22
2023-04-18T22:56:51.199Z,98575.56
2023-04-18T22:59:56.878Z,98565.03
2023-04-18T23:03:03.493Z,98563.38
2023-04-18T23:06:12.958Z,98564.31
2023-04-18T23:09:19.957Z,98547.34
2023-04-18T23:12:25.457Z,98547.44
2023-04-18T23:15:31.863Z,98547.44
2023-04-18T23:18:37.407Z,98540.59
2023-04-18T23:21:47.720Z,98535.53
2023-04-18T23:24:55.056Z,98531.97
2023-04-18T23:28:01.352Z,98531.09
2023-04-18T23:31:07.001Z,98525.38
2023-04-18T23:34:14.006Z,98522.13
2023-04-18T23:37:22.594Z,98511.03
2023-04-18T23:40:29.131Z,98515.84
2023-04-18T23:43:34.666Z,98500.22
2023-04-18T23:46:41.148Z,98503.47
2023-04-18T23:49:46.631Z,98495.22
2023-04-18T23:52:55.855Z,98499.72
2023-04-18T23:56:01.309Z,98495.41
2023-04-18T23:59:07.635Z,98485.84
